Nearby METAR Reports

 

KI68 - Lebanon, Ohio, USA
Distance from station: SW 1mi, 3km
Updated: Thu, 06-May-2021 7:55am EDT
Clear
Clear
 Wind from calm
Wind: Calm
Temperature: 45°F , 7°C
Dew Point: 45°F , 7°C
Humidity: 100%
Barometer: 30.16 inHg , 1021.3 hPa
Clouds: Clear
Visibility: 10 miles , 16 km
2021/05/06 11:55 KI68 061155Z AUTO 00000KT 10SM CLR 07/07 A3016 RMK AO1 6//// 7//// T00670067
KLEX - Lexington, Kentucky, USA
Distance from station: SE 25mi, 38km
Updated: Thu, 06-May-2021 7:54am EDT
Clear
Clear
 Wind from calm
Wind: Calm
Temperature: 43°F , 6°C
Dew Point: 39°F , 4°C
Humidity: 87%
Barometer: 30.16 inHg , 1021.3 hPa
Clouds: Clear
Visibility: 10 miles , 16 km
2021/05/06 11:54 KLEX 061154Z 00000KT 10SM CLR 06/04 A3016 RMK AO2 SLP215 T00560044 10078 20022 53012
 
KFFT - Frankfort, Kentucky, USA
Distance from station: WNW 24mi, 38km
Updated: Thu, 06-May-2021 7:53am EDT
Clear
Clear
 Wind from calm
Wind: Calm
Temperature: 43°F , 6°C
Dew Point: 37°F , 3°C
Humidity: 81%
Barometer: 30.15 inHg , 1021 hPa
Clouds: Clear
Visibility: 10 miles , 16 km
2021/05/06 11:53 KFFT 061153Z AUTO 00000KT 10SM CLR 06/03 A3015 RMK AO2 SLP212 T00560033 10078 20028 51009
KIOB - Mount Sterling, Kentucky, USA
Distance from station: E 28mi, 46km
Updated: Thu, 06-May-2021 7:55am EDT
Clear
Clear
 Wind from calm
Wind: Calm
Temperature: 41°F , 5°C
Dew Point: 41°F , 5°C
Humidity: 100%
Barometer: 30.20 inHg , 1022.7 hPa
Clouds: Clear
Visibility: 10 miles , 16 km
2021/05/06 11:55 KIOB 061155Z AUTO 00000KT 10SM CLR 05/05 A3020 RMK AO2
 
KDVK - Danville, Kentucky, USA
Distance from station: SSW 35mi, 56km
Updated: Thu, 06-May-2021 7:35am EDT
Clear
Clear
 Wind from calm
Wind: Calm
Temperature: 37°F , 3°C
Dew Point: 37°F , 3°C
Humidity: 100%
Barometer: 30.19 inHg , 1022.4 hPa
Clouds: Clear
Visibility: 10 miles , 16 km
2021/05/06 11:35 KDVK 061135Z AUTO 00000KT 10SM CLR 03/03 A3019 RMK AO2
K6I2 - Springfield, Kentucky, USA
Distance from station: SW 49mi, 80km
Updated: Thu, 06-May-2021 7:50am EDT
Clear
Clear
 Wind from calm
Wind: Calm
Temperature: 43°F , 6°C
Dew Point: 43°F , 6°C
Humidity: 100%
Barometer: 30.17 inHg , 1021.7 hPa
Clouds: Clear
Visibility: 10 miles , 16 km
2021/05/06 11:50 K6I2 061150Z AUTO 00000KT 10SM CLR 06/06 A3017 RMK AO2
 
KSYM - Morehead, Kentucky, USA
Distance from station: ENE 51mi, 83km
Updated: Sun, 02-May-2021 12:55pm EDT
NOT Current
Clear
Clear
 Wind from SW
Wind: SW 12 mph , 19 km/h, Gust: 17 mph , 28 km/h
Temperature: 75°F , 24°C
Dew Point: 41°F , 5°C
Humidity: 29%
Barometer: 29.93 inHg , 1013.5 hPa
Clouds: Clear
Visibility: 10 miles , 16 km
2021/05/02 16:55 KSYM 021655Z AUTO 23010G15KT 10SM CLR 24/05 A2993 RMK AO2
KFGX - Flemingsburg, Kentucky, USA
Distance from station: NE 54mi, 87km
Updated: Thu, 06-May-2021 7:35am EDT
Clear
Clear
 Wind from calm
Wind: Calm
Temperature: 41°F , 5°C
Dew Point: 41°F , 5°C
Humidity: 100%
Barometer: 30.19 inHg , 1022.4 hPa
Clouds: Clear
Visibility: 10 miles , 16 km
2021/05/06 11:35 KFGX 061135Z AUTO 00000KT 10SM CLR 05/05 A3019 RMK AO2 T00520052
 
KLOU - Louisville/Bowmn, Kentucky, USA
Distance from station: W 64mi, 104km
Updated: Thu, 06-May-2021 7:53am EDT
Clear
Clear
 Wind from calm
Wind: Calm
Temperature: 46°F , 8°C
Dew Point: 39°F , 4°C
Humidity: 76%
Barometer: 30.17 inHg , 1021.7 hPa
Clouds: Clear
Visibility: 10 miles , 16 km
2021/05/06 11:53 KLOU 061153Z 00000KT 10SM CLR 08/04 A3017 RMK AO2 SLP214 T00780044 10100 20044 51008
KSDF - Louisville, Kentucky, USA
Distance from station: W 68mi, 109km
Updated: Thu, 06-May-2021 7:56am EDT
Mostly cloudy
Mostly cloudy
 Wind from calm
Wind: Calm
Temperature: 48°F , 9°C
Dew Point: 43°F , 6°C
Humidity: 82%
Barometer: 30.17 inHg , 1021.7 hPa
Clouds: Mostly cloudy
Visibility: 10 miles , 16 km
Cloud details: Few Clouds 12000 ft
Partly cloudy 16000 ft
Mostly cloudy 20000 ft
Mostly cloudy 25000 ft
2021/05/06 11:56 KSDF 061156Z 00000KT 10SM FEW120 SCT160 BKN200 BKN250 09/06 A3017 RMK AO2 SLP216 T00890056 10111 20072 53009
 
KSME - Somerset, Kentucky, USA
Distance from station: S 69mi, 111km
Updated: Thu, 06-May-2021 7:36am EDT
Clear
Clear
 Wind from calm
Wind: Calm
Temperature: 41°F , 5°C
Dew Point: 39°F , 4°C
Humidity: 93%
Barometer: 30.20 inHg , 1022.7 hPa
Clouds: Clear
Visibility: 10 miles , 16 km
2021/05/06 11:36 KSME 061136Z AUTO 00000KT 10SM CLR 05/04 A3020 RMK AO2
KCVG - Covington, Kentucky, USA
Distance from station: N 70mi, 113km
Updated: Thu, 06-May-2021 7:52am EDT
Mostly cloudy
Mostly cloudy
 Wind from calm
Wind: Calm
Temperature: 45°F , 7°C
Dew Point: 37°F , 3°C
Humidity: 76%
Barometer: 30.15 inHg , 1021 hPa
Clouds: Mostly cloudy
Visibility: 10 miles , 16 km
Cloud details: Partly cloudy 18000 ft
Mostly cloudy 25000 ft
2021/05/06 11:52 KCVG 061152Z 00000KT 10SM SCT180 BKN250 07/03 A3015 RMK AO2 SLP208 T00670033 10083 20039 51010
 
KLOZ - London, Kentucky, USA
Distance from station: SSE 70mi, 113km
Updated: Thu, 06-May-2021 7:53am EDT
Clear
Clear
 Wind from calm
Wind: Calm
Temperature: 46°F , 8°C
Dew Point: 41°F , 5°C
Humidity: 82%
Barometer: 30.17 inHg , 1021.7 hPa
Clouds: Clear
Visibility: 10 miles , 16 km
2021/05/06 11:53 KLOZ 061153Z AUTO 00000KT 10SM CLR 08/05 A3017 RMK AO2 SLP217 T00780050 10078 20050 53022
KJKL - Noctor/Jackson, Kentucky, USA
Distance from station: ESE 72mi, 115km
Updated: Thu, 06-May-2021 7:53am EDT
Clear
Clear
 Wind from calm
Wind: Calm
Temperature: 46°F , 8°C
Dew Point: 41°F , 5°C
Humidity: 82%
Barometer: 30.17 inHg , 1021.7 hPa
Clouds: Clear
Visibility: 10 miles , 16 km
2021/05/06 11:53 KJKL 061153Z AUTO 00000KT 10SM CLR 08/05 A3017 RMK AO2 SLP214 T00780050 10089 20061 53019
 
KIMS - Madison, Indiana, USA
Distance from station: NW 72mi, 116km
Updated: Thu, 06-May-2021 7:55am EDT
Clear
Clear
 Wind from calm
Wind: Calm
Temperature: 41°F , 5°C
Dew Point: 41°F , 5°C
Humidity: 100%
Barometer: 30.18 inHg , 1022 hPa
Clouds: Clear
Visibility: 10 miles , 16 km
2021/05/06 11:55 KIMS 061155Z AUTO 00000KT 10SM CLR 05/05 A3018 RMK AO1
KLUK - Cincinnat/Lunken, Ohio, USA
Distance from station: N 73mi, 118km
Updated: Thu, 06-May-2021 7:53am EDT
Few Clouds
Few Clouds
 Wind from calm
Wind: Calm
Temperature: 45°F , 7°C
Dew Point: 43°F , 6°C
Humidity: 93%
Barometer: 30.18 inHg , 1022 hPa
Clouds: Few Clouds
Visibility: 10 miles , 16 km
Cloud details: Few Clouds 200 ft
2021/05/06 11:53 KLUK 061153Z 00000KT 10SM R21L/4000VP6000FT FEW002 07/06 A3018 RMK AO2 SLP220 T00670061 10067 20022 53008
 
KI69 - Batavia, Ohio, USA
Distance from station: NNE 74mi, 119km
Updated: Thu, 06-May-2021 7:55am EDT
Clear
Clear
 Wind from calm
Wind: Calm
Temperature: 43°F , 6°C
Dew Point: 41°F , 5°C
Humidity: 93%
Barometer: 30.18 inHg , 1022 hPa
Clouds: Clear
Visibility: 10 miles , 16 km
2021/05/06 11:55 KI69 061155Z AUTO 00000KT 10SM CLR 06/05 A3018 RMK AO2 T00560047 10063 20030